Time;durP1;ratioP1;P1;durP2;ratioP2;P2;SDS_P1;SDS_P2;PMS_P1;PMS_P2;Temp;Humidity;BMP_temperature;BMP_pressure;BME280_temperature;BME280_humidity;BME280_pressure;Samples;Min_cycle;Max_cycle;Signal;HPM_P1;HPM_P2
2022/07/31 00:01:27;;;;;;;0.60;0.60;;;18.70;99.90;;;;;;5074022;28;20452;-78
2022/07/31 00:03:53;;;;;;;1.07;0.83;;;18.60;99.90;;;;;;5073912;28;20451;-77
2022/07/31 00:06:20;;;;;;;1.80;0.70;;;18.60;99.90;;;;;;5073796;28;20477;-77
2022/07/31 00:08:49;;;;;;;0.83;0.80;;;18.50;99.90;;;;;;5073499;28;20452;-78
2022/07/31 00:11:16;;;;;;;1.00;0.90;;;18.50;99.90;;;;;;5073812;28;20444;-77
2022/07/31 00:13:42;;;;;;;0.80;0.80;;;18.50;99.90;;;;;;5073774;28;20446;-78
2022/07/31 00:16:09;;;;;;;0.80;0.70;;;18.50;99.90;;;;;;5073760;28;20449;-77
2022/07/31 00:18:37;;;;;;;1.27;0.93;;;18.50;99.90;;;;;;5073393;28;20925;-78
2022/07/31 00:21:05;;;;;;;1.43;0.80;;;18.50;99.90;;;;;;5073594;28;20469;-77
2022/07/31 00:23:31;;;;;;;0.80;0.80;;;18.50;99.90;;;;;;5073660;28;20539;-77
2022/07/31 00:25:58;;;;;;;1.03;0.90;;;18.50;99.90;;;;;;5073592;28;20834;-77
2022/07/31 00:28:25;;;;;;;0.70;0.53;;;18.50;99.90;;;;;;5073570;28;20811;-78
2022/07/31 00:30:52;;;;;;;0.40;0.40;;;18.50;99.90;;;;;;5073473;28;20464;-78
2022/07/31 00:33:18;;;;;;;0.67;0.67;;;18.50;99.90;;;;;;5073510;28;20448;-78
2022/07/31 00:35:46;;;;;;;1.13;0.97;;;18.60;99.90;;;;;;5073516;28;20449;-77
2022/07/31 00:38:13;;;;;;;0.60;0.50;;;18.60;99.90;;;;;;5073450;28;20448;-77
2022/07/31 00:40:46;;;;;;;0.70;0.60;;;18.60;99.90;;;;;;5072641;28;20508;-78
2022/07/31 00:43:14;;;;;;;0.73;0.67;;;18.60;99.90;;;;;;5073452;28;20457;-77
2022/07/31 00:45:41;;;;;;;0.60;0.60;;;18.60;99.90;;;;;;5073321;28;20521;-77
2022/07/31 00:48:07;;;;;;;2.10;0.70;;;18.70;99.90;;;;;;5073382;28;20449;-78
2022/07/31 00:50:34;;;;;;;0.60;0.60;;;18.70;99.90;;;;;;5073299;28;20464;-78
2022/07/31 00:53:02;;;;;;;1.10;1.00;;;18.70;99.90;;;;;;5073344;28;20445;-78
2022/07/31 00:55:30;;;;;;;0.50;0.50;;;18.70;99.90;;;;;;5073306;28;20448;-77
2022/07/31 00:57:56;;;;;;;0.70;0.70;;;18.70;99.90;;;;;;5073246;28;20519;-78
2022/07/31 01:00:23;;;;;;;0.70;0.70;;;18.60;99.90;;;;;;5073193;28;20460;-77
2022/07/31 01:02:50;;;;;;;6.73;0.70;;;18.60;99.90;;;;;;5072958;28;20959;-77
2022/07/31 01:05:17;;;;;;;0.73;0.63;;;18.60;99.90;;;;;;5072887;28;20963;-78
2022/07/31 01:07:45;;;;;;;0.70;0.70;;;18.60;99.90;;;;;;5073138;28;20855;-78
2022/07/31 01:10:19;;;;;;;0.60;0.60;;;18.60;99.90;;;;;;5073119;28;20510;-78
2022/07/31 01:12:52;;;;;;;0.77;0.70;;;18.50;99.90;;;;;;5073180;28;20425;-77
2022/07/31 01:15:20;;;;;;;0.70;0.60;;;18.40;99.90;;;;;;5072876;28;20932;-77
2022/07/31 01:17:50;;;;;;;0.77;0.70;;;18.40;99.90;;;;;;5073089;28;20441;-78
2022/07/31 01:20:17;;;;;;;0.70;0.70;;;18.30;99.90;;;;;;5073051;28;20468;-78
2022/07/31 01:22:56;;;;;;;0.67;0.67;;;18.30;99.90;;;;;;5073016;28;20452;-77
2022/07/31 01:25:37;;;;;;;1.00;0.83;;;18.20;99.90;;;;;;5073060;28;20490;-78
2022/07/31 01:28:22;;;;;;;0.60;0.60;;;18.20;99.90;;;;;;5072617;28;20987;-78
2022/07/31 01:30:56;;;;;;;1.03;0.70;;;18.10;99.90;;;;;;5072602;28;20472;-78
2022/07/31 01:33:29;;;;;;;0.67;0.67;;;18.10;99.90;;;;;;5072645;28;20429;-78
2022/07/31 01:36:02;;;;;;;3.50;1.27;;;18.10;99.90;;;;;;5072953;28;20437;-78
2022/07/31 01:38:34;;;;;;;0.63;0.63;;;18.00;99.90;;;;;;5072634;28;20928;-78
2022/07/31 01:41:04;;;;;;;1.10;0.80;;;18.00;99.90;;;;;;5072575;28;20514;-77
2022/07/31 01:43:36;;;;;;;0.93;0.90;;;17.90;99.90;;;;;;5072842;28;20444;-78
2022/07/31 01:46:06;;;;;;;0.70;0.70;;;17.90;99.90;;;;;;5072457;28;20437;-78
2022/07/31 01:48:35;;;;;;;0.80;0.80;;;17.90;99.90;;;;;;5072548;28;20437;-78
2022/07/31 01:51:03;;;;;;;0.63;0.63;;;17.80;99.90;;;;;;5072730;28;20465;-77
2022/07/31 01:53:31;;;;;;;0.80;0.80;;;17.80;99.90;;;;;;5075015;28;20936;-78
2022/07/31 01:55:58;;;;;;;1.03;0.73;;;17.80;99.90;;;;;;5076401;28;20859;-78
2022/07/31 01:58:27;;;;;;;0.67;0.67;;;17.80;99.90;;;;;;5076410;28;20448;-77
2022/07/31 02:00:57;;;;;;;0.70;0.70;;;17.80;99.90;;;;;;5076210;28;20464;-78
2022/07/31 02:03:27;;;;;;;0.53;0.53;;;17.70;99.90;;;;;;5076265;28;20444;-77
2022/07/31 02:05:55;;;;;;;0.80;0.80;;;17.70;99.90;;;;;;5076260;28;20433;-78
2022/07/31 02:08:24;;;;;;;1.33;1.03;;;17.70;99.90;;;;;;5076062;28;20484;-77
2022/07/31 02:10:53;;;;;;;2.93;1.00;;;17.70;99.90;;;;;;5076051;28;20464;-78
2022/07/31 02:13:22;;;;;;;0.50;0.50;;;17.60;99.90;;;;;;5076056;28;20467;-78
2022/07/31 02:15:51;;;;;;;0.70;0.70;;;17.60;99.90;;;;;;5076048;28;20547;-78
2022/07/31 02:18:20;;;;;;;0.70;0.70;;;17.60;99.90;;;;;;5076456;28;20797;-77
2022/07/31 02:20:50;;;;;;;1.60;0.93;;;17.50;99.90;;;;;;5075846;28;20473;-78
2022/07/31 02:23:17;;;;;;;0.80;0.80;;;17.50;99.90;;;;;;5075907;28;20440;-78
2022/07/31 02:25:46;;;;;;;0.73;0.63;;;17.50;99.90;;;;;;5075866;28;20453;-78
2022/07/31 02:28:19;;;;;;;0.60;0.60;;;17.50;99.90;;;;;;5075421;28;20477;-78
2022/07/31 02:30:47;;;;;;;1.13;0.67;;;17.40;99.90;;;;;;5075723;28;20564;-77
2022/07/31 02:33:19;;;;;;;1.27;0.73;;;17.30;99.90;;;;;;5075717;28;20449;-78
2022/07/31 02:35:50;;;;;;;0.70;0.70;;;17.30;99.90;;;;;;5075723;28;20439;-78
2022/07/31 02:38:19;;;;;;;0.80;0.60;;;17.30;99.90;;;;;;5075768;28;20453;-77
2022/07/31 02:40:46;;;;;;;0.90;0.90;;;17.30;99.90;;;;;;5075356;28;20869;-77
2022/07/31 02:43:14;;;;;;;2.40;0.70;;;17.30;99.90;;;;;;5075216;28;20449;-78
2022/07/31 02:45:42;;;;;;;1.93;1.07;;;17.30;99.90;;;;;;5075492;28;20455;-78
2022/07/31 02:48:09;;;;;;;0.70;0.70;;;17.30;99.90;;;;;;5075076;28;21000;-78
2022/07/31 02:50:36;;;;;;;0.80;0.80;;;17.20;99.90;;;;;;5075363;28;20522;-78
2022/07/31 02:53:04;;;;;;;0.50;0.50;;;17.20;99.90;;;;;;5075319;28;20445;-77
2022/07/31 02:55:32;;;;;;;0.70;0.70;;;17.20;99.90;;;;;;5075307;28;20453;-78
2022/07/31 02:57:59;;;;;;;0.77;0.60;;;17.20;99.90;;;;;;5074949;28;20967;-78
2022/07/31 03:00:27;;;;;;;0.70;0.70;;;17.20;99.90;;;;;;5074859;28;20464;-78
2022/07/31 03:02:54;;;;;;;0.90;0.70;;;17.30;99.90;;;;;;5074660;28;20472;-77
2022/07/31 03:05:21;;;;;;;3.43;0.90;;;17.30;99.90;;;;;;5075134;28;20448;-77
2022/07/31 03:07:49;;;;;;;1.50;1.00;;;17.30;99.90;;;;;;5074637;28;20844;-77
2022/07/31 03:10:17;;;;;;;0.57;0.57;;;17.20;99.90;;;;;;5074949;28;20475;-78
2022/07/31 03:12:47;;;;;;;0.50;0.50;;;17.20;99.90;;;;;;5075013;28;20432;-78
2022/07/31 03:15:17;;;;;;;2.20;0.80;;;17.20;99.90;;;;;;5075727;28;20449;-78
2022/07/31 03:17:45;;;;;;;1.97;0.97;;;17.20;99.90;;;;;;5074811;28;20472;-78
2022/07/31 03:20:13;;;;;;;1.23;0.80;;;17.20;99.90;;;;;;5074414;28;20469;-78
2022/07/31 03:22:41;;;;;;;2.80;1.10;;;17.10;99.90;;;;;;5074468;28;20441;-78
2022/07/31 03:25:08;;;;;;;0.60;0.60;;;17.10;99.90;;;;;;5074725;28;20823;-77
2022/07/31 03:27:36;;;;;;;2.93;0.90;;;17.00;99.90;;;;;;5074537;28;20507;-77
2022/07/31 03:30:05;;;;;;;1.00;0.77;;;17.00;99.90;;;;;;5074568;28;20465;-78
2022/07/31 03:32:34;;;;;;;0.87;0.87;;;17.00;99.90;;;;;;5074594;28;20445;-78
2022/07/31 03:35:01;;;;;;;0.77;0.70;;;17.00;99.90;;;;;;5074527;28;20449;-78
2022/07/31 03:37:27;;;;;;;0.83;0.70;;;16.90;99.90;;;;;;5074166;28;20815;-78
2022/07/31 03:39:54;;;;;;;0.70;0.70;;;16.90;99.90;;;;;;5074359;28;20472;-78
2022/07/31 03:42:21;;;;;;;0.80;0.80;;;16.90;99.90;;;;;;5073956;28;20472;-78
2022/07/31 03:44:50;;;;;;;1.13;0.70;;;16.90;99.90;;;;;;5074287;28;20445;-77
2022/07/31 03:47:16;;;;;;;0.93;0.80;;;16.90;99.90;;;;;;5074211;28;20480;-77
2022/07/31 03:49:43;;;;;;;1.27;0.70;;;16.80;99.90;;;;;;5074183;28;20494;-78
2022/07/31 03:52:10;;;;;;;1.37;0.70;;;16.80;99.90;;;;;;5073840;28;20828;-77
2022/07/31 03:54:37;;;;;;;2.30;0.80;;;16.80;99.90;;;;;;5074121;28;20445;-78
2022/07/31 03:57:04;;;;;;;0.70;0.70;;;16.80;99.90;;;;;;5074118;28;20444;-77
2022/07/31 03:59:34;;;;;;;1.20;1.10;;;16.90;99.90;;;;;;5073630;28;20982;-75
2022/07/31 04:02:02;;;;;;;0.93;0.70;;;16.90;99.90;;;;;;5073992;28;20449;-75
2022/07/31 04:04:29;;;;;;;0.60;0.60;;;16.90;99.90;;;;;;5073968;28;20444;-75
2022/07/31 04:06:56;;;;;;;1.43;1.33;;;16.90;99.90;;;;;;5073782;28;20445;-75
2022/07/31 04:09:22;;;;;;;2.63;1.00;;;16.90;99.90;;;;;;5073750;28;20560;-75
2022/07/31 04:11:49;;;;;;;0.60;0.60;;;16.90;99.90;;;;;;5073818;28;20447;-75
2022/07/31 04:14:16;;;;;;;1.47;1.03;;;16.90;99.90;;;;;;5073532;28;20464;-75
2022/07/31 04:16:43;;;;;;;0.80;0.80;;;16.90;99.90;;;;;;5073264;28;20445;-75
2022/07/31 04:19:11;;;;;;;0.70;0.70;;;16.90;99.90;;;;;;5073413;28;20792;-78
2022/07/31 04:21:38;;;;;;;0.87;0.83;;;16.90;99.90;;;;;;5073377;28;20451;-78
2022/07/31 04:24:06;;;;;;;0.50;0.50;;;16.90;99.90;;;;;;5073383;28;20447;-78
2022/07/31 04:26:33;;;;;;;1.53;0.87;;;17.00;99.90;;;;;;5073293;28;20449;-78
2022/07/31 04:29:00;;;;;;;0.60;0.60;;;17.00;99.90;;;;;;5073460;28;20481;-77
2022/07/31 04:31:26;;;;;;;0.53;0.53;;;17.00;99.90;;;;;;5073553;28;20460;-78
2022/07/31 04:33:53;;;;;;;1.17;0.90;;;17.00;99.90;;;;;;5073552;28;20449;-78
2022/07/31 04:36:21;;;;;;;5.70;1.00;;;17.00;99.90;;;;;;5073199;28;20448;-77
2022/07/31 04:38:48;;;;;;;0.70;0.70;;;17.10;99.90;;;;;;5073140;28;20544;-78
2022/07/31 04:41:16;;;;;;;1.20;0.73;;;17.10;99.90;;;;;;5073130;28;20499;-77
2022/07/31 04:43:43;;;;;;;1.17;1.07;;;17.20;99.90;;;;;;5073090;28;20445;-77
2022/07/31 04:46:10;;;;;;;1.30;0.97;;;17.20;99.90;;;;;;5073416;28;20543;-77
2022/07/31 04:48:37;;;;;;;0.60;0.60;;;17.30;99.90;;;;;;5073006;28;20862;-78
2022/07/31 04:51:04;;;;;;;8.20;0.90;;;17.30;99.90;;;;;;5073243;28;20534;-77
2022/07/31 04:53:32;;;;;;;1.23;1.13;;;17.30;99.90;;;;;;5074188;28;20781;-78
2022/07/31 04:58:43;;;;;;;1.27;1.17;;;17.40;99.90;;;;;;5073210;28;20400;-78
2022/07/31 05:01:10;;;;;;;1.53;1.10;;;17.50;99.90;;;;;;5072897;28;21004;-78
2022/07/31 05:03:37;;;;;;;0.80;0.80;;;17.60;99.90;;;;;;5073254;28;20471;-78
2022/07/31 05:06:10;;;;;;;0.80;0.80;;;17.70;99.90;;;;;;5073187;28;20452;-77
2022/07/31 05:08:38;;;;;;;0.60;0.60;;;17.80;99.90;;;;;;5073127;28;20873;-78
2022/07/31 05:11:23;;;;;;;1.83;0.70;;;17.90;99.90;;;;;;5072804;28;20544;-78
2022/07/31 05:13:50;;;;;;;1.00;0.90;;;18.00;99.90;;;;;;5072892;28;20896;-78
2022/07/31 05:16:18;;;;;;;0.97;0.90;;;18.10;99.90;;;;;;5073144;28;20480;-78
2022/07/31 05:18:45;;;;;;;0.93;0.90;;;18.20;99.90;;;;;;5073150;28;20483;-78
2022/07/31 05:21:12;;;;;;;1.13;1.03;;;18.30;99.90;;;;;;5072984;28;20530;-78
2022/07/31 05:23:41;;;;;;;1.10;1.00;;;18.50;99.90;;;;;;5072735;28;20935;-78
2022/07/31 05:26:08;;;;;;;1.37;1.00;;;18.50;99.90;;;;;;5073576;28;20440;-78
2022/07/31 05:28:35;;;;;;;1.60;0.80;;;18.60;99.90;;;;;;5076899;28;20571;-78
2022/07/31 05:31:02;;;;;;;0.77;0.60;;;18.70;99.90;;;;;;5077410;28;20468;-77
2022/07/31 05:33:29;;;;;;;1.17;1.00;;;18.80;99.90;;;;;;5076880;28;20444;-78
2022/07/31 05:35:56;;;;;;;1.10;1.00;;;18.80;99.90;;;;;;5076515;28;20448;-78
2022/07/31 05:38:22;;;;;;;0.70;0.70;;;18.90;99.90;;;;;;5076924;28;20460;-78
2022/07/31 05:40:51;;;;;;;1.60;1.00;;;19.00;99.90;;;;;;5076351;28;20484;-78
2022/07/31 05:43:17;;;;;;;1.17;1.00;;;19.10;99.90;;;;;;5076676;28;20444;-78
2022/07/31 05:45:45;;;;;;;1.50;1.40;;;19.10;99.90;;;;;;5076339;28;20954;-78
2022/07/31 05:48:12;;;;;;;0.67;0.67;;;19.10;99.90;;;;;;5076473;28;20484;-78
2022/07/31 05:50:41;;;;;;;1.43;0.80;;;19.20;99.90;;;;;;5076480;28;20460;-78
2022/07/31 05:53:10;;;;;;;1.17;0.83;;;19.20;99.90;;;;;;5076452;28;20448;-78
2022/07/31 05:55:37;;;;;;;0.80;0.80;;;19.20;99.90;;;;;;5076433;28;20449;-78
2022/07/31 05:58:05;;;;;;;1.17;0.80;;;19.20;99.90;;;;;;5076394;28;20441;-78
2022/07/31 06:00:32;;;;;;;1.03;0.80;;;19.20;99.90;;;;;;5076160;28;20475;-78
2022/07/31 06:02:59;;;;;;;0.70;0.70;;;19.30;99.90;;;;;;5076277;28;20455;-78
2022/07/31 06:05:26;;;;;;;1.97;1.07;;;19.20;99.90;;;;;;5076257;28;20518;-78
2022/07/31 06:07:53;;;;;;;0.70;0.70;;;19.20;99.90;;;;;;5076160;28;20517;-78
2022/07/31 06:10:20;;;;;;;1.60;1.10;;;19.20;99.90;;;;;;5076119;28;20465;-78
2022/07/31 06:12:46;;;;;;;0.80;0.80;;;19.30;99.90;;;;;;5075841;28;20444;-78
2022/07/31 06:15:14;;;;;;;0.90;0.73;;;19.30;99.90;;;;;;5075882;28;20433;-78
2022/07/31 06:17:42;;;;;;;1.20;1.10;;;19.30;99.90;;;;;;5076091;28;20444;-78
2022/07/31 06:20:10;;;;;;;0.70;0.70;;;19.40;99.90;;;;;;5075900;28;20479;-78
2022/07/31 06:22:38;;;;;;;0.70;0.70;;;19.40;99.90;;;;;;5075981;28;20449;-78
2022/07/31 06:25:07;;;;;;;0.97;0.87;;;19.50;99.90;;;;;;5075893;28;20467;-78
2022/07/31 06:27:34;;;;;;;0.80;0.70;;;19.60;99.90;;;;;;5075831;28;20477;-78
2022/07/31 06:30:01;;;;;;;0.73;0.73;;;19.70;99.90;;;;;;5075472;28;21024;-78
2022/07/31 06:32:29;;;;;;;0.73;0.60;;;19.70;99.90;;;;;;5075782;28;20449;-78
2022/07/31 06:34:56;;;;;;;1.03;0.80;;;19.80;99.90;;;;;;5075397;28;20433;-78
2022/07/31 06:37:24;;;;;;;1.27;0.87;;;19.90;99.90;;;;;;5075422;28;20456;-78
2022/07/31 06:39:51;;;;;;;1.00;1.00;;;19.90;99.90;;;;;;5075058;28;20472;-78
2022/07/31 06:42:18;;;;;;;1.30;1.20;;;19.90;99.90;;;;;;5075217;28;20483;-78
2022/07/31 06:44:45;;;;;;;0.80;0.80;;;20.00;99.90;;;;;;5075552;28;20501;-78
2022/07/31 06:47:12;;;;;;;1.13;1.03;;;20.10;99.90;;;;;;5075517;28;20444;-78
2022/07/31 06:49:41;;;;;;;0.80;0.80;;;20.10;99.90;;;;;;5075012;28;20999;-78
2022/07/31 06:52:08;;;;;;;1.23;1.00;;;20.20;99.90;;;;;;5075430;28;20447;-78
2022/07/31 06:54:34;;;;;;;1.03;1.00;;;20.30;99.90;;;;;;5075364;28;20471;-78
2022/07/31 06:57:01;;;;;;;1.10;1.10;;;20.40;99.90;;;;;;5075032;28;20966;-78
2022/07/31 06:59:28;;;;;;;4.30;0.70;;;20.50;99.90;;;;;;5075202;28;20460;-78
2022/07/31 07:01:55;;;;;;;0.87;0.73;;;20.70;99.90;;;;;;5075173;28;20485;-78
2022/07/31 07:04:21;;;;;;;1.10;0.87;;;20.80;99.90;;;;;;5075184;28;20448;-78
2022/07/31 07:06:49;;;;;;;1.00;0.80;;;20.90;99.90;;;;;;5075130;28;20453;-78
2022/07/31 07:09:16;;;;;;;0.70;0.70;;;21.00;99.90;;;;;;5074666;28;21017;-78
2022/07/31 07:11:43;;;;;;;1.37;1.00;;;21.20;99.90;;;;;;5075063;28;20448;-78
2022/07/31 07:14:09;;;;;;;1.60;0.83;;;21.30;99.90;;;;;;5075065;28;20543;-78
2022/07/31 07:16:36;;;;;;;0.80;0.80;;;21.50;99.90;;;;;;5074959;28;20476;-78
2022/07/31 07:19:03;;;;;;;1.03;1.00;;;21.70;99.90;;;;;;5074841;28;20448;-78
2022/07/31 07:21:29;;;;;;;0.80;0.70;;;22.00;99.90;;;;;;5074838;28;20448;-78
2022/07/31 07:23:58;;;;;;;1.37;0.80;;;22.20;99.90;;;;;;5074817;28;20440;-78
2022/07/31 07:26:24;;;;;;;1.13;1.00;;;22.40;99.90;;;;;;5074797;28;20798;-78
2022/07/31 07:28:51;;;;;;;0.80;0.80;;;22.70;99.90;;;;;;5074519;28;20483;-78
2022/07/31 07:31:18;;;;;;;1.00;1.00;;;23.00;99.90;;;;;;5074335;28;20955;-78
2022/07/31 07:33:46;;;;;;;1.37;1.00;;;23.20;99.90;;;;;;5074665;28;20190;-78
2022/07/31 07:36:13;;;;;;;0.80;0.80;;;23.40;99.90;;;;;;5074259;28;20734;-78
2022/07/31 07:38:40;;;;;;;1.00;0.90;;;23.60;99.90;;;;;;5074497;28;20553;-78
2022/07/31 07:41:08;;;;;;;1.23;0.80;;;23.70;99.90;;;;;;5074084;28;20241;-78
2022/07/31 07:43:34;;;;;;;1.15;1.05;;;23.80;99.90;;;;;;5074374;28;20207;-78
2022/07/31 07:46:01;;;;;;;0.85;0.80;;;24.00;99.90;;;;;;5074905;28;20208;-78
2022/07/31 07:48:28;;;;;;;0.80;0.80;;;24.00;99.90;;;;;;5074203;28;20229;-78
2022/07/31 07:50:55;;;;;;;0.90;0.90;;;23.90;99.90;;;;;;5074249;28;20218;-78
2022/07/31 07:53:22;;;;;;;0.80;0.80;;;23.90;99.90;;;;;;5074342;28;20202;-78
2022/07/31 07:55:49;;;;;;;0.80;0.80;;;24.00;99.90;;;;;;5073888;28;20205;-78
2022/07/31 07:58:17;;;;;;;2.05;0.70;;;23.90;99.90;;;;;;5074005;28;20193;-78
2022/07/31 08:00:43;;;;;;;1.17;0.80;;;23.90;99.90;;;;;;5073936;28;20229;-78
2022/07/31 08:03:10;;;;;;;3.03;1.17;;;24.00;99.90;;;;;;5074053;28;20231;-78
2022/07/31 08:05:37;;;;;;;2.70;0.80;;;24.10;99.90;;;;;;5073984;28;20213;-78
2022/07/31 08:08:04;;;;;;;0.70;0.70;;;24.10;99.90;;;;;;5073533;28;20556;-78
2022/07/31 08:10:30;;;;;;;1.00;0.80;;;24.10;99.90;;;;;;5073859;28;20233;-78
2022/07/31 08:12:57;;;;;;;0.70;0.70;;;24.10;99.90;;;;;;5073822;28;20210;-78
2022/07/31 08:15:25;;;;;;;0.90;0.70;;;24.10;99.90;;;;;;5073567;28;20213;-78
2022/07/31 08:17:52;;;;;;;1.33;0.60;;;24.20;99.90;;;;;;5073790;28;20202;-78
2022/07/31 08:20:19;;;;;;;0.60;0.60;;;24.20;99.90;;;;;;5073366;28;20221;-78
2022/07/31 08:22:45;;;;;;;0.65;0.65;;;24.20;99.90;;;;;;5073726;28;20209;-78
2022/07/31 08:25:12;;;;;;;0.63;0.63;;;24.40;99.90;;;;;;5073375;28;20599;-78
2022/07/31 08:27:39;;;;;;;0.60;0.60;;;24.90;98.70;;;;;;5073687;28;20201;-78
2022/07/31 08:30:07;;;;;;;0.77;0.77;;;25.30;96.30;;;;;;5073171;28;20587;-78
2022/07/31 08:32:37;;;;;;;0.68;0.68;;;25.60;96.30;;;;;;5073574;28;20212;-78
2022/07/31 08:35:04;;;;;;;0.60;0.60;;;25.80;95.80;;;;;;5073519;28;20201;-78
2022/07/31 08:37:31;;;;;;;0.75;0.68;;;25.80;95.40;;;;;;5073556;28;20213;-78
2022/07/31 08:39:58;;;;;;;0.73;0.73;;;26.00;95.70;;;;;;5073107;28;20229;-78
2022/07/31 08:42:25;;;;;;;0.77;0.77;;;26.10;95.60;;;;;;5073027;28;20328;-78
2022/07/31 08:44:52;;;;;;;1.05;0.90;;;26.30;95.10;;;;;;5073433;28;20205;-78
2022/07/31 08:47:22;;;;;;;1.00;0.88;;;26.30;93.50;;;;;;5073279;28;20206;-78
2022/07/31 08:49:51;;;;;;;0.70;0.70;;;26.50;93.00;;;;;;5072963;28;20698;-78
2022/07/31 08:52:20;;;;;;;0.95;0.68;;;26.60;92.20;;;;;;5073368;28;20205;-78
2022/07/31 08:54:49;;;;;;;1.05;0.80;;;26.60;93.10;;;;;;5073388;28;20209;-78
2022/07/31 08:57:16;;;;;;;0.50;0.50;;;26.70;93.00;;;;;;5073369;28;20202;-78
2022/07/31 08:59:43;;;;;;;0.63;0.63;;;26.80;92.40;;;;;;5072964;28;20218;-83
2022/07/31 09:02:11;;;;;;;0.85;0.82;;;26.90;91.30;;;;;;5077802;28;20307;-83
2022/07/31 09:04:39;;;;;;;1.20;0.70;;;26.90;91.10;;;;;;5079902;28;20202;-83
2022/07/31 09:07:10;;;;;;;0.80;0.80;;;27.10;90.20;;;;;;5079975;28;20201;-84
2022/07/31 09:09:37;;;;;;;0.77;0.77;;;27.20;90.30;;;;;;5079835;28;20225;-83
2022/07/31 09:12:04;;;;;;;0.73;0.73;;;27.40;91.40;;;;;;5079596;28;20205;-83
2022/07/31 09:14:33;;;;;;;0.75;0.70;;;27.60;90.20;;;;;;5079598;28;20202;-83
2022/07/31 09:17:01;;;;;;;0.60;0.60;;;27.90;88.70;;;;;;5079608;28;20798;-83
2022/07/31 09:19:37;;;;;;;0.80;0.70;;;28.00;86.30;;;;;;5079755;28;20229;-83
2022/07/31 09:22:04;;;;;;;0.75;0.75;;;28.30;86.70;;;;;;5079880;28;20186;-83
2022/07/31 09:24:33;;;;;;;0.70;0.70;;;28.50;86.40;;;;;;5079470;28;20206;-83
2022/07/31 09:27:05;;;;;;;0.90;0.90;;;28.40;82.30;;;;;;5079400;28;20678;-83
2022/07/31 09:29:36;;;;;;;0.73;0.68;;;28.20;83.00;;;;;;5079600;28;20261;-83
2022/07/31 09:32:11;;;;;;;0.70;0.70;;;27.90;83.60;;;;;;5079409;28;20202;-83
2022/07/31 09:34:38;;;;;;;0.65;0.65;;;27.60;84.70;;;;;;5079400;28;20680;-82
2022/07/31 09:37:12;;;;;;;0.95;0.77;;;27.40;87.10;;;;;;5079680;28;20271;-82
2022/07/31 09:39:41;;;;;;;0.60;0.60;;;27.60;84.40;;;;;;5079596;28;20265;-84
2022/07/31 09:42:08;;;;;;;0.60;0.60;;;27.90;84.80;;;;;;5079227;28;20241;-83
2022/07/31 09:44:37;;;;;;;0.70;0.70;;;28.20;82.00;;;;;;5079549;28;20212;-83
2022/07/31 09:47:05;;;;;;;0.70;0.70;;;28.40;83.20;;;;;;5079543;28;20206;-83
2022/07/31 09:49:34;;;;;;;2.33;0.73;;;28.40;82.30;;;;;;5079372;28;20236;-83
2022/07/31 09:52:01;;;;;;;1.95;0.60;;;28.20;81.40;;;;;;5079230;28;20202;-82
2022/07/31 09:54:30;;;;;;;0.70;0.70;;;27.90;81.70;;;;;;5079516;28;20205;-83
2022/07/31 09:56:59;;;;;;;1.30;0.73;;;27.80;83.20;;;;;;5079147;28;20208;-83
2022/07/31 09:59:26;;;;;;;0.70;0.70;;;27.80;83.20;;;;;;5079394;28;20214;-82
2022/07/31 10:01:54;;;;;;;0.60;0.60;;;27.80;81.20;;;;;;5079419;28;20262;-82
2022/07/31 10:04:22;;;;;;;1.00;0.70;;;27.60;83.30;;;;;;5079430;28;20202;-83
2022/07/31 10:06:51;;;;;;;0.70;0.70;;;27.50;82.20;;;;;;5079400;28;20244;-83
2022/07/31 10:09:19;;;;;;;0.70;0.70;;;27.50;80.60;;;;;;5079448;28;20231;-82
2022/07/31 10:11:47;;;;;;;0.75;0.75;;;27.40;81.60;;;;;;5079902;28;20209;-82
2022/07/31 10:14:21;;;;;;;0.50;0.50;;;27.50;82.00;;;;;;5075023;28;20213;-82
2022/07/31 10:16:51;;;;;;;2.05;0.80;;;27.50;81.80;;;;;;5075866;28;20213;-82
2022/07/31 10:19:19;;;;;;;0.70;0.70;;;27.50;83.00;;;;;;5076033;28;20214;-82
2022/07/31 10:21:53;;;;;;;0.70;0.70;;;27.50;83.60;;;;;;5076005;28;20206;-82
2022/07/31 10:24:22;;;;;;;1.05;0.80;;;27.50;82.00;;;;;;5076035;28;20193;-82
2022/07/31 10:26:49;;;;;;;0.80;0.80;;;27.30;82.30;;;;;;5075623;28;20677;-82
2022/07/31 10:29:17;;;;;;;0.80;0.80;;;27.10;83.70;;;;;;5075432;28;20697;-82
2022/07/31 10:31:45;;;;;;;0.80;0.77;;;27.00;83.30;;;;;;5075800;28;20202;-82
2022/07/31 10:34:13;;;;;;;0.70;0.70;;;27.10;84.80;;;;;;5075840;28;20280;-82
2022/07/31 10:36:42;;;;;;;0.60;0.60;;;27.10;84.80;;;;;;5075897;28;20183;-82
2022/07/31 10:39:18;;;;;;;0.65;0.65;;;27.30;81.80;;;;;;5075693;28;20225;-82
2022/07/31 10:41:52;;;;;;;0.60;0.60;;;27.30;81.30;;;;;;5075201;28;20721;-82
2022/07/31 10:44:27;;;;;;;1.08;0.70;;;27.20;83.20;;;;;;5075292;28;20191;-82
2022/07/31 10:46:54;;;;;;;0.73;0.73;;;27.20;82.80;;;;;;5075601;28;20193;-82
2022/07/31 10:49:39;;;;;;;0.60;0.60;;;27.20;83.50;;;;;;5075378;28;20230;-82
2022/07/31 10:52:06;;;;;;;0.65;0.65;;;27.20;82.50;;;;;;5075488;28;20225;-82
2022/07/31 10:54:39;;;;;;;0.70;0.70;;;27.10;83.70;;;;;;5075553;28;20209;-82
2022/07/31 10:57:06;;;;;;;1.70;0.70;;;27.10;80.80;;;;;;5075415;28;20193;-82
2022/07/31 10:59:34;;;;;;;1.85;1.05;;;27.00;81.30;;;;;;5075267;28;20214;-82
2022/07/31 11:02:01;;;;;;;2.08;0.90;;;27.00;82.80;;;;;;5075307;28;20210;-82
2022/07/31 11:04:30;;;;;;;1.17;0.85;;;27.00;81.60;;;;;;5075236;28;20209;-82
2022/07/31 11:06:58;;;;;;;0.90;0.90;;;27.00;81.80;;;;;;5075189;28;20225;-82
2022/07/31 11:09:26;;;;;;;0.60;0.60;;;26.90;81.00;;;;;;5074705;28;20233;-82
2022/07/31 11:11:54;;;;;;;0.70;0.70;;;26.80;81.80;;;;;;5074791;28;20198;-82
2022/07/31 11:14:32;;;;;;;0.70;0.70;;;26.80;81.10;;;;;;5074711;28;20569;-82
2022/07/31 11:17:00;;;;;;;0.75;0.75;;;26.80;80.60;;;;;;5075021;28;20236;-82
2022/07/31 11:19:38;;;;;;;0.77;0.65;;;26.80;83.20;;;;;;5074908;28;20244;-82
2022/07/31 11:22:09;;;;;;;0.60;0.60;;;26.90;81.00;;;;;;5074932;28;20248;-82
2022/07/31 11:24:37;;;;;;;1.67;0.85;;;27.20;81.90;;;;;;5074553;28;20217;-82
2022/07/31 11:27:05;;;;;;;0.70;0.70;;;27.50;81.40;;;;;;5074459;28;20696;-82
2022/07/31 11:29:34;;;;;;;0.70;0.70;;;27.80;80.40;;;;;;5074513;28;20222;-82
2022/07/31 11:32:13;;;;;;;0.80;0.60;;;28.00;81.10;;;;;;5074400;28;20202;-82
2022/07/31 11:34:47;;;;;;;0.68;0.68;;;28.10;78.10;;;;;;5074680;28;20217;-82
2022/07/31 11:37:17;;;;;;;0.88;0.80;;;28.10;81.00;;;;;;5074571;28;20209;-82
2022/07/31 11:39:44;;;;;;;0.68;0.68;;;28.30;80.00;;;;;;5074462;28;20223;-82
2022/07/31 11:42:11;;;;;;;0.80;0.80;;;28.40;78.00;;;;;;5074063;28;20311;-82
2022/07/31 11:44:38;;;;;;;0.80;0.80;;;28.50;76.00;;;;;;5074055;28;20670;-82
2022/07/31 11:47:06;;;;;;;0.77;0.70;;;28.50;75.40;;;;;;5074789;28;20293;-82
2022/07/31 11:49:35;;;;;;;0.60;0.60;;;28.30;75.80;;;;;;5073869;28;20222;-82
2022/07/31 11:52:02;;;;;;;1.00;0.70;;;28.10;78.30;;;;;;5074226;28;20285;-82
2022/07/31 11:54:29;;;;;;;0.73;0.73;;;27.90;76.40;;;;;;5073906;28;20249;-82
2022/07/31 11:56:56;;;;;;;0.70;0.60;;;27.80;77.70;;;;;;5074177;28;20201;-81
2022/07/31 11:59:29;;;;;;;0.63;0.63;;;27.90;78.90;;;;;;5074064;28;20583;-82
2022/07/31 12:02:03;;;;;;;0.80;0.80;;;27.90;78.90;;;;;;5074431;28;20213;-82
2022/07/31 12:04:31;;;;;;;0.68;0.68;;;27.90;78.30;;;;;;5074084;28;20186;-82
2022/07/31 12:06:59;;;;;;;0.85;0.85;;;27.80;78.20;;;;;;5073980;28;20210;-82
2022/07/31 12:09:26;;;;;;;0.98;0.80;;;27.70;79.70;;;;;;5073827;28;20226;-82
2022/07/31 12:11:53;;;;;;;0.55;0.55;;;27.80;78.50;;;;;;5073591;28;20669;-81
2022/07/31 12:14:28;;;;;;;0.80;0.80;;;28.00;77.90;;;;;;5073871;28;20206;-82
2022/07/31 12:16:55;;;;;;;0.68;0.68;;;28.20;76.90;;;;;;5073903;28;20556;-81
2022/07/31 12:19:26;;;;;;;0.60;0.60;;;28.40;76.90;;;;;;5073727;28;20229;-81
2022/07/31 12:21:55;;;;;;;0.82;0.82;;;28.60;75.90;;;;;;5073796;28;20182;-82
2022/07/31 12:24:22;;;;;;;0.70;0.70;;;28.50;77.80;;;;;;5073383;28;20213;-83
2022/07/31 12:26:50;;;;;;;0.95;0.80;;;28.40;75.40;;;;;;5073704;28;20202;-82
2022/07/31 12:29:18;;;;;;;0.80;0.80;;;28.30;73.90;;;;;;5073546;28;20239;-82
2022/07/31 12:31:46;;;;;;;0.80;0.80;;;28.00;74.30;;;;;;5073526;28;20234;-81
2022/07/31 12:34:13;;;;;;;0.68;0.68;;;27.90;75.50;;;;;;5073614;28;20198;-82
2022/07/31 12:36:40;;;;;;;0.60;0.60;;;27.60;76.70;;;;;;5072535;28;20201;-81
2022/07/31 12:39:11;;;;;;;1.40;0.82;;;27.40;78.40;;;;;;5073522;28;20579;-82
2022/07/31 12:41:42;;;;;;;2.58;0.80;;;27.40;79.50;;;;;;5073064;28;20240;-82
2022/07/31 12:44:10;;;;;;;0.90;0.88;;;27.30;78.60;;;;;;5073165;28;20210;-82
2022/07/31 12:46:37;;;;;;;0.75;0.75;;;27.40;78.10;;;;;;5074301;28;20550;-81
2022/07/31 12:49:05;;;;;;;0.90;0.90;;;27.40;76.80;;;;;;5073372;28;20201;-81
2022/07/31 12:51:32;;;;;;;1.40;0.75;;;27.50;76.80;;;;;;5073388;28;20655;-81
2022/07/31 12:53:59;;;;;;;0.90;0.90;;;27.60;77.40;;;;;;5073097;28;20569;-82
2022/07/31 12:56:27;;;;;;;0.73;0.73;;;27.70;76.30;;;;;;5073366;28;20206;-82